createdAt,value
2019-02-28T00:01:58.672Z,6.70
2019-02-28T00:04:31.980Z,6.70
2019-02-28T00:07:00.438Z,6.60
2019-02-28T00:09:30.371Z,6.60
2019-02-28T00:12:00.637Z,6.60
2019-02-28T00:14:30.550Z,6.60
2019-02-28T00:17:01.188Z,6.60
2019-02-28T00:19:31.058Z,6.70
2019-02-28T00:22:01.277Z,6.70
2019-02-28T00:24:31.148Z,6.80
2019-02-28T00:27:01.497Z,6.80
2019-02-28T00:29:33.754Z,6.90
2019-02-28T00:32:03.471Z,6.90
2019-02-28T00:34:36.358Z,6.90
2019-02-28T00:37:05.646Z,6.90
2019-02-28T00:39:35.683Z,6.90
2019-02-28T00:42:06.295Z,6.90
2019-02-28T00:44:38.916Z,6.90
2019-02-28T00:47:08.684Z,6.90
2019-02-28T00:50:34.762Z,6.90
2019-02-28T00:53:06.410Z,6.90
2019-02-28T00:55:36.487Z,6.80
2019-02-28T00:58:06.402Z,6.80
2019-02-28T01:00:38.063Z,6.70
2019-02-28T01:03:08.203Z,6.70
2019-02-28T01:05:38.078Z,6.60
2019-02-28T01:08:08.437Z,6.60
2019-02-28T01:10:39.432Z,6.50
2019-02-28T01:13:09.807Z,6.50
2019-02-28T01:15:44.495Z,6.50
2019-02-28T01:18:11.612Z,6.50
2019-02-28T01:20:43.949Z,6.40
2019-02-28T01:23:13.803Z,6.50
2019-02-28T01:25:43.578Z,6.40
2019-02-28T01:28:13.448Z,6.40
2019-02-28T01:30:43.346Z,6.40
2019-02-28T01:33:13.237Z,6.40
2019-02-28T01:35:43.167Z,6.40
2019-02-28T01:38:13.133Z,6.40
2019-02-28T01:40:42.992Z,6.40
2019-02-28T01:43:12.890Z,6.40
2019-02-28T01:45:44.227Z,6.40
2019-02-28T01:48:14.253Z,6.40
2019-02-28T01:50:44.130Z,6.40
2019-02-28T01:53:18.746Z,6.40
2019-02-28T01:55:45.974Z,6.50
2019-02-28T01:58:16.795Z,6.50
2019-02-28T02:00:47.258Z,6.50
2019-02-28T02:03:17.176Z,6.50
2019-02-28T02:05:48.300Z,6.50
2019-02-28T02:08:19.430Z,6.50
2019-02-28T02:10:56.019Z,6.50
2019-02-28T02:13:26.363Z,6.40
2019-02-28T02:15:56.538Z,6.40
2019-02-28T02:18:26.826Z,6.30
2019-02-28T02:20:57.436Z,6.30
2019-02-28T02:23:32.006Z,6.40
2019-02-28T02:26:02.277Z,6.40
2019-02-28T02:28:32.439Z,6.30
2019-02-28T02:31:02.616Z,6.40
2019-02-28T02:33:32.987Z,6.30
2019-02-28T02:36:03.150Z,6.30
2019-02-28T02:38:39.834Z,6.30
2019-02-28T02:41:05.480Z,6.30
2019-02-28T02:43:35.630Z,6.20
2019-02-28T02:46:06.181Z,6.20
2019-02-28T02:48:38.502Z,6.20
2019-02-28T02:51:30.588Z,6.20
2019-02-28T02:54:08.376Z,6.10
2019-02-28T02:56:41.999Z,6.10
2019-02-28T02:59:10.983Z,6.10
2019-02-28T03:01:42.207Z,6.10
2019-02-28T03:04:22.959Z,6.10
2019-02-28T03:06:55.474Z,6.10
2019-02-28T03:09:25.735Z,6.10
2019-02-28T03:12:16.456Z,6.00
2019-02-28T03:14:50.007Z,6.00
2019-02-28T03:17:46.386Z,5.90
2019-02-28T03:20:20.591Z,5.90
2019-02-28T03:22:50.344Z,6.00
2019-02-28T03:25:42.353Z,5.90
2019-02-28T03:28:14.022Z,6.00
2019-02-28T03:31:11.587Z,6.00
2019-02-28T03:33:30.829Z,6.00
2019-02-28T03:36:07.142Z,5.90
2019-02-28T03:38:37.442Z,5.90
2019-02-28T03:41:07.381Z,5.90
2019-02-28T03:43:42.659Z,5.90
2019-02-28T03:46:11.606Z,5.90
2019-02-28T03:48:41.857Z,5.90
2019-02-28T03:51:11.890Z,5.90
2019-02-28T03:53:43.049Z,5.90
2019-02-28T03:59:04.775Z,5.90
2019-02-28T04:01:45.653Z,5.90
2019-02-28T04:04:30.375Z,5.90
2019-02-28T04:07:24.872Z,5.90
2019-02-28T04:10:32.150Z,5.90
2019-02-28T04:12:59.253Z,5.90
2019-02-28T04:15:29.414Z,5.90
2019-02-28T04:18:06.686Z,5.80
2019-02-28T04:20:36.132Z,5.80
2019-02-28T04:23:09.798Z,5.80
2019-02-28T04:25:39.746Z,5.80
2019-02-28T04:28:17.237Z,5.70
2019-02-28T04:30:43.872Z,5.70
2019-02-28T04:33:13.561Z,5.80
2019-02-28T04:35:43.597Z,5.80
2019-02-28T04:38:14.594Z,5.70
2019-02-28T04:40:44.630Z,5.70
2019-02-28T04:43:14.656Z,5.70
2019-02-28T04:45:44.550Z,5.70
2019-02-28T04:48:14.701Z,5.70
2019-02-28T04:50:45.024Z,5.70
2019-02-28T04:53:15.032Z,5.70
2019-02-28T04:55:45.192Z,5.70
2019-02-28T04:58:15.326Z,5.70
2019-02-28T05:00:46.294Z,5.70
2019-02-28T05:03:16.365Z,5.60
2019-02-28T05:05:46.935Z,5.60
2019-02-28T05:08:17.637Z,5.60
2019-02-28T05:10:47.524Z,5.60
2019-02-28T05:13:17.769Z,5.60
2019-02-28T05:16:03.288Z,5.60
2019-02-28T05:18:43.864Z,5.60
2019-02-28T05:21:19.578Z,5.60
2019-02-28T05:24:07.661Z,5.60
2019-02-28T05:26:37.637Z,5.60
2019-02-28T05:29:07.817Z,5.50
2019-02-28T05:31:37.743Z,5.50
2019-02-28T05:34:07.657Z,5.50
2019-02-28T05:36:38.031Z,5.50
2019-02-28T05:39:08.902Z,5.50
2019-02-28T05:41:38.796Z,5.50
2019-02-28T05:44:08.731Z,5.50
2019-02-28T05:46:41.147Z,5.50
2019-02-28T05:49:11.136Z,5.50
2019-02-28T05:51:40.949Z,5.50
2019-02-28T05:54:15.887Z,5.50
2019-02-28T05:56:42.774Z,5.50
2019-02-28T05:59:12.952Z,5.50
2019-02-28T06:01:43.582Z,5.50
2019-02-28T06:04:14.972Z,5.50
2019-02-28T06:06:45.104Z,5.50
2019-02-28T06:09:15.151Z,5.50
2019-02-28T06:11:56.113Z,5.50
2019-02-28T06:14:27.545Z,5.60
2019-02-28T06:16:57.961Z,5.60
2019-02-28T06:19:30.265Z,5.60
2019-02-28T06:22:00.191Z,5.60
2019-02-28T06:24:50.371Z,5.60
2019-02-28T06:27:20.965Z,5.60
2019-02-28T06:29:57.291Z,5.60
2019-02-28T06:32:27.487Z,5.50
2019-02-28T06:34:59.845Z,5.50
2019-02-28T06:37:29.996Z,5.50
2019-02-28T06:40:00.930Z,5.50
2019-02-28T06:42:31.047Z,5.50
2019-02-28T06:45:02.703Z,5.50
2019-02-28T06:47:33.405Z,5.50
2019-02-28T06:50:03.867Z,5.50
2019-02-28T06:52:33.750Z,5.50
2019-02-28T06:55:04.101Z,5.50
2019-02-28T06:57:34.058Z,5.50
2019-02-28T07:00:05.122Z,5.50
2019-02-28T07:02:35.146Z,5.50
2019-02-28T07:05:05.421Z,5.50
2019-02-28T07:07:35.398Z,5.50
2019-02-28T07:10:09.668Z,5.50
2019-02-28T07:12:38.437Z,5.60
2019-02-28T07:15:08.755Z,5.60
2019-02-28T07:17:42.635Z,5.60
2019-02-28T07:20:12.656Z,5.70
2019-02-28T07:22:42.544Z,5.80
2019-02-28T07:25:13.824Z,5.90
2019-02-28T07:27:44.297Z,5.90
2019-02-28T07:30:18.720Z,6.00
2019-02-28T07:32:46.769Z,6.10
2019-02-28T07:35:16.813Z,6.20
2019-02-28T07:37:46.799Z,6.20
2019-02-28T07:40:17.482Z,6.30
2019-02-28T07:42:47.552Z,6.30
2019-02-28T07:45:17.530Z,6.40
2019-02-28T07:47:51.710Z,6.50
2019-02-28T07:50:38.857Z,6.60
2019-02-28T07:53:09.707Z,6.60
2019-02-28T07:55:39.776Z,6.80
2019-02-28T07:58:09.580Z,6.80
2019-02-28T08:00:39.462Z,7.00
2019-02-28T08:03:11.261Z,7.10
2019-02-28T08:05:41.685Z,7.20
2019-02-28T08:08:11.542Z,7.30
2019-02-28T08:10:41.456Z,7.40
2019-02-28T08:13:11.302Z,7.60
2019-02-28T08:15:41.106Z,7.70
2019-02-28T08:18:10.853Z,7.80
2019-02-28T08:20:42.218Z,7.90
2019-02-28T08:23:12.802Z,8.10
2019-02-28T08:25:43.522Z,8.20
2019-02-28T08:28:18.452Z,8.40
2019-02-28T08:30:55.013Z,8.50
2019-02-28T08:33:20.962Z,8.60
2019-02-28T08:35:50.934Z,8.80
2019-02-28T08:38:20.720Z,8.90
2019-02-28T08:40:51.603Z,9.10
2019-02-28T08:43:27.208Z,9.20
2019-02-28T08:45:53.494Z,9.30
2019-02-28T08:48:23.415Z,9.40
2019-02-28T08:50:55.766Z,9.50
2019-02-28T08:53:25.321Z,9.70
2019-02-28T08:55:55.327Z,9.80
2019-02-28T08:58:25.165Z,10.00
2019-02-28T09:00:55.147Z,10.30
2019-02-28T09:03:27.455Z,10.50
2019-02-28T09:05:56.843Z,10.60
2019-02-28T09:08:26.644Z,10.70
2019-02-28T09:10:56.622Z,10.80
2019-02-28T09:13:26.479Z,10.90
2019-02-28T09:15:56.513Z,11.00
2019-02-28T09:18:26.430Z,11.20
2019-02-28T09:20:56.242Z,11.30
2019-02-28T09:23:26.602Z,11.50
2019-02-28T09:25:57.621Z,11.80
2019-02-28T09:28:28.504Z,12.10
2019-02-28T09:31:01.311Z,12.40
2019-02-28T09:33:30.217Z,12.60
2019-02-28T09:36:00.113Z,12.80
2019-02-28T09:38:30.155Z,12.90
2019-02-28T09:41:01.405Z,13.10
2019-02-28T09:43:31.891Z,13.40
2019-02-28T09:46:01.889Z,13.40
2019-02-28T09:48:34.033Z,13.50
2019-02-28T09:51:03.627Z,13.90
2019-02-28T09:53:33.973Z,14.10
2019-02-28T09:56:08.833Z,14.30
2019-02-28T09:58:35.777Z,14.20
2019-02-28T10:01:05.759Z,14.20
2019-02-28T10:03:35.730Z,14.10
2019-02-28T10:06:05.644Z,14.30
2019-02-28T10:08:36.885Z,14.40
2019-02-28T10:11:07.373Z,14.80
2019-02-28T10:13:38.129Z,14.90
2019-02-28T10:16:08.119Z,14.80
2019-02-28T10:18:38.912Z,14.80
2019-02-28T10:21:09.828Z,14.80
2019-02-28T10:23:39.793Z,15.00
2019-02-28T10:26:09.737Z,15.00
2019-02-28T10:28:39.577Z,15.00
2019-02-28T10:31:09.482Z,15.10
2019-02-28T10:33:39.386Z,15.20
2019-02-28T10:36:12.898Z,15.30
2019-02-28T10:38:41.285Z,15.40
2019-02-28T10:41:11.404Z,15.50
2019-02-28T10:43:41.297Z,15.60
2019-02-28T10:46:13.329Z,15.70
2019-02-28T10:48:50.752Z,15.90
2019-02-28T10:51:14.855Z,15.90
2019-02-28T10:53:44.819Z,16.20
2019-02-28T10:56:14.661Z,16.30
2019-02-28T10:58:47.130Z,16.40
2019-02-28T11:01:17.334Z,16.50
2019-02-28T11:03:47.477Z,16.70
2019-02-28T11:06:17.359Z,17.00
2019-02-28T11:08:47.673Z,17.20
2019-02-28T11:11:18.270Z,17.30
2019-02-28T11:13:48.203Z,17.40
2019-02-28T11:16:20.495Z,17.50
2019-02-28T11:18:50.061Z,17.60
2019-02-28T11:21:20.755Z,17.60
2019-02-28T11:23:50.603Z,17.70
2019-02-28T11:26:20.522Z,17.70
2019-02-28T11:28:53.152Z,17.70
2019-02-28T11:31:23.224Z,17.70
2019-02-28T11:33:53.218Z,17.70
2019-02-28T11:36:23.932Z,17.70
2019-02-28T11:38:55.462Z,17.80
2019-02-28T11:41:25.448Z,17.90
2019-02-28T11:43:55.314Z,18.00
2019-02-28T11:46:25.212Z,18.10
2019-02-28T11:48:55.164Z,18.30
2019-02-28T11:51:27.643Z,18.30
2019-02-28T11:53:58.620Z,18.40
2019-02-28T11:56:29.449Z,18.50
2019-02-28T11:58:59.586Z,18.60
2019-02-28T12:01:29.589Z,18.70
2019-02-28T12:03:59.875Z,18.90
2019-02-28T12:06:29.743Z,18.90
2019-02-28T12:09:02.931Z,18.90
2019-02-28T12:11:33.496Z,18.80
2019-02-28T12:14:06.317Z,18.70
2019-02-28T12:16:36.491Z,18.60
2019-02-28T12:19:06.857Z,18.50
2019-02-28T12:21:37.946Z,18.40
2019-02-28T12:24:08.659Z,18.50
2019-02-28T12:26:38.511Z,18.60
2019-02-28T12:29:09.511Z,18.90
2019-02-28T12:31:40.483Z,18.90
2019-02-28T12:34:11.711Z,19.00
2019-02-28T12:36:50.236Z,18.90
2019-02-28T12:39:20.349Z,18.70
2019-02-28T12:41:50.208Z,18.80
2019-02-28T12:44:20.175Z,18.70
2019-02-28T12:46:50.151Z,18.70
2019-02-28T12:49:22.390Z,18.70
2019-02-28T12:51:52.552Z,18.70
2019-02-28T12:54:22.440Z,18.60
2019-02-28T12:56:52.338Z,18.60
2019-02-28T12:59:22.308Z,18.60
2019-02-28T13:01:52.249Z,18.50
2019-02-28T13:04:22.285Z,18.60
2019-02-28T13:06:55.591Z,18.60
2019-02-28T13:09:24.212Z,18.80
2019-02-28T13:11:54.169Z,18.70
2019-02-28T13:14:24.175Z,18.60
2019-02-28T13:16:54.588Z,18.60
2019-02-28T13:19:35.529Z,18.70
2019-02-28T13:22:05.503Z,18.70
2019-02-28T13:24:35.405Z,18.70
2019-02-28T13:27:09.875Z,18.70
2019-02-28T13:29:38.938Z,18.60
2019-02-28T13:32:08.907Z,18.70
2019-02-28T13:34:38.869Z,18.70
2019-02-28T13:37:09.067Z,18.60
2019-02-28T13:39:39.033Z,18.50
2019-02-28T13:42:09.081Z,18.50
2019-02-28T13:44:39.761Z,18.40
2019-02-28T13:47:10.707Z,18.40
2019-02-28T13:49:40.985Z,18.40
2019-02-28T13:52:19.103Z,18.50
2019-02-28T13:54:43.350Z,18.50
2019-02-28T13:57:13.698Z,18.50
2019-02-28T13:59:43.555Z,18.60
2019-02-28T14:02:14.176Z,18.50
2019-02-28T14:04:44.282Z,18.60
2019-02-28T14:07:16.676Z,18.60
2019-02-28T14:09:47.531Z,18.60
2019-02-28T14:12:20.774Z,18.50
2019-02-28T14:14:49.410Z,18.50
2019-02-28T14:17:19.853Z,18.50
2019-02-28T14:19:52.698Z,18.50
2019-02-28T14:22:22.536Z,18.50
2019-02-28T14:24:53.421Z,18.50
2019-02-28T14:27:25.023Z,18.40
2019-02-28T14:29:55.606Z,18.30
2019-02-28T14:32:25.747Z,18.30
2019-02-28T14:34:57.296Z,18.30
2019-02-28T14:37:28.199Z,18.30
2019-02-28T14:39:59.469Z,18.40
2019-02-28T14:42:29.362Z,18.30
2019-02-28T14:44:59.347Z,18.30
2019-02-28T14:47:29.611Z,18.30
2019-02-28T14:49:59.806Z,18.30
2019-02-28T14:52:29.753Z,18.40
2019-02-28T14:55:00.226Z,18.30
2019-02-28T14:57:30.492Z,18.30
2019-02-28T15:00:06.297Z,18.30
2019-02-28T15:02:32.533Z,18.30
2019-02-28T15:05:02.784Z,18.30
2019-02-28T15:07:35.273Z,18.30
2019-02-28T15:10:08.105Z,18.40
2019-02-28T15:12:38.582Z,18.30
2019-02-28T15:15:14.814Z,18.30
2019-02-28T15:17:44.499Z,18.30
2019-02-28T15:20:15.277Z,18.30
2019-02-28T15:22:45.197Z,18.30
2019-02-28T15:25:18.542Z,18.20
2019-02-28T15:27:49.203Z,18.20
2019-02-28T15:30:22.449Z,18.20
2019-02-28T15:32:54.405Z,18.20
2019-02-28T15:35:24.606Z,18.20
2019-02-28T15:37:54.607Z,18.10
2019-02-28T15:40:30.798Z,18.10
2019-02-28T15:43:00.938Z,18.10
2019-02-28T15:45:30.980Z,18.00
2019-02-28T15:48:01.071Z,18.00
2019-02-28T15:50:30.944Z,17.90
2019-02-28T15:53:01.402Z,17.80
2019-02-28T15:55:35.094Z,17.80
2019-02-28T15:58:05.882Z,17.70
2019-02-28T16:00:37.029Z,17.60
2019-02-28T16:03:07.059Z,17.60
2019-02-28T16:05:42.681Z,17.50
2019-02-28T16:08:10.612Z,17.50
2019-02-28T16:10:40.953Z,17.40
2019-02-28T16:13:10.992Z,17.20
2019-02-28T16:15:43.212Z,17.10
2019-02-28T16:18:13.156Z,17.00
2019-02-28T16:20:43.274Z,16.90
2019-02-28T16:23:13.296Z,16.80
2019-02-28T16:25:46.941Z,16.70
2019-02-28T16:28:15.267Z,16.60
2019-02-28T16:30:45.181Z,16.50
2019-02-28T16:33:15.231Z,16.40
2019-02-28T16:35:46.765Z,16.30
2019-02-28T16:38:17.259Z,16.10
2019-02-28T16:40:47.414Z,16.00
2019-02-28T16:43:20.895Z,15.90
2019-02-28T16:45:49.844Z,15.80
2019-02-28T16:48:19.927Z,15.80
2019-02-28T16:50:53.190Z,15.70
2019-02-28T16:53:23.843Z,15.60
2019-02-28T16:55:53.975Z,15.50
2019-02-28T16:58:23.952Z,15.50
2019-02-28T17:00:54.253Z,15.40
2019-02-28T17:03:24.245Z,15.30
2019-02-28T17:05:54.304Z,15.30
2019-02-28T17:08:26.216Z,15.20
2019-02-28T17:10:56.355Z,15.10
2019-02-28T17:13:40.771Z,15.10
2019-02-28T17:16:33.766Z,15.00
2019-02-28T17:19:08.663Z,15.00
2019-02-28T17:21:39.881Z,14.90
2019-02-28T17:24:12.196Z,14.80
2019-02-28T17:27:06.212Z,14.70
2019-02-28T17:29:48.329Z,14.70
2019-02-28T17:32:19.074Z,14.60
2019-02-28T17:34:50.172Z,14.50
2019-02-28T17:37:25.484Z,14.50
2019-02-28T17:39:52.328Z,14.40
2019-02-28T17:42:22.497Z,14.30
2019-02-28T17:45:18.030Z,14.30
2019-02-28T17:48:25.813Z,14.20
2019-02-28T17:51:38.243Z,14.10
2019-02-28T17:55:02.909Z,14.10
2019-02-28T17:58:06.920Z,14.00
2019-02-28T18:01:28.653Z,13.90
2019-02-28T18:05:00.811Z,13.80
2019-02-28T18:08:16.441Z,13.70
2019-02-28T18:11:54.789Z,13.60
2019-02-28T18:14:50.851Z,13.60
2019-02-28T18:18:15.636Z,13.50
2019-02-28T18:21:37.440Z,13.40
2019-02-28T18:24:41.161Z,13.30
2019-02-28T18:28:39.327Z,13.20
2019-02-28T18:31:13.285Z,13.10
2019-02-28T18:34:20.640Z,13.00
2019-02-28T18:36:51.767Z,12.90
2019-02-28T18:39:22.140Z,12.80
2019-02-28T18:41:52.533Z,12.80
2019-02-28T18:44:22.936Z,12.70
2019-02-28T18:46:53.126Z,12.60
2019-02-28T18:49:26.640Z,12.60
2019-02-28T18:51:55.380Z,12.50
2019-02-28T18:54:26.405Z,12.50
2019-02-28T18:56:56.553Z,12.50
2019-02-28T18:59:26.580Z,12.40
2019-02-28T19:01:56.508Z,12.40
2019-02-28T19:04:26.782Z,12.40
2019-02-28T19:06:56.937Z,12.30
2019-02-28T19:09:28.768Z,12.30
2019-02-28T19:12:02.606Z,12.20
2019-02-28T19:14:34.435Z,12.20
2019-02-28T19:17:04.371Z,12.10
2019-02-28T19:19:34.761Z,12.10
2019-02-28T19:22:04.702Z,12.10
2019-02-28T19:24:34.783Z,12.00
2019-02-28T19:27:05.122Z,12.00
2019-02-28T19:29:35.197Z,12.00
2019-02-28T19:32:05.145Z,12.00
2019-02-28T19:34:35.127Z,12.00
2019-02-28T19:37:05.217Z,12.00
2019-02-28T19:39:35.556Z,12.00
2019-02-28T19:42:05.656Z,12.00
2019-02-28T19:44:35.718Z,12.00
2019-02-28T19:47:05.824Z,11.90
2019-02-28T19:49:35.856Z,11.90
2019-02-28T19:52:05.866Z,11.90
2019-02-28T19:54:38.214Z,11.90
2019-02-28T19:57:09.234Z,11.90
2019-02-28T19:59:39.412Z,11.90
2019-02-28T20:02:09.578Z,11.80
2019-02-28T20:04:39.800Z,11.80
2019-02-28T20:07:21.336Z,11.80
2019-02-28T20:10:06.489Z,11.80
2019-02-28T20:12:36.426Z,11.80
2019-02-28T20:15:07.079Z,11.70
2019-02-28T20:17:39.462Z,11.70
2019-02-28T20:20:12.863Z,11.70
2019-02-28T20:22:43.149Z,11.60
2019-02-28T20:25:16.521Z,11.60
2019-02-28T20:27:49.215Z,11.60
2019-02-28T20:30:30.758Z,11.60
2019-02-28T20:33:01.514Z,11.70
2019-02-28T20:35:36.736Z,11.70
2019-02-28T20:41:53.663Z,11.70
2019-02-28T20:50:10.318Z,11.70
2019-02-28T20:53:05.496Z,11.70
2019-02-28T21:03:13.736Z,11.80
2019-02-28T21:06:04.745Z,11.80
2019-02-28T21:08:36.510Z,11.80
2019-02-28T21:11:46.422Z,11.70
2019-02-28T21:14:29.027Z,11.80
2019-02-28T21:18:01.751Z,11.80
2019-02-28T21:31:48.832Z,11.70
2019-02-28T21:34:51.512Z,11.70
2019-02-28T21:37:27.040Z,11.70
2019-02-28T21:53:24.785Z,11.70
2019-02-28T21:57:06.731Z,11.70
2019-02-28T21:59:39.274Z,11.70
2019-02-28T22:02:12.259Z,11.70
2019-02-28T22:04:45.232Z,11.60
2019-02-28T22:07:26.847Z,11.60
2019-02-28T22:09:57.234Z,11.50
2019-02-28T22:12:27.729Z,11.50
2019-02-28T22:15:03.755Z,11.40
2019-02-28T22:17:34.354Z,11.40
2019-02-28T22:20:04.681Z,11.50
2019-02-28T22:22:40.487Z,11.50
2019-02-28T22:25:11.684Z,11.40
2019-02-28T22:27:42.158Z,11.40
2019-02-28T22:30:49.669Z,11.40
2019-02-28T22:33:39.619Z,11.30
2019-02-28T22:36:14.672Z,11.40
2019-02-28T22:38:44.927Z,11.40
2019-02-28T22:41:15.484Z,11.40
2019-02-28T22:43:46.006Z,11.40
2019-02-28T22:46:19.201Z,11.40
2019-02-28T22:48:51.774Z,11.30
2019-02-28T22:51:23.564Z,11.30
2019-02-28T22:53:59.784Z,11.30
2019-02-28T22:56:30.427Z,11.30
2019-02-28T22:59:01.027Z,11.20
2019-02-28T23:01:32.182Z,11.10
2019-02-28T23:04:03.044Z,11.00
2019-02-28T23:06:39.214Z,11.00
2019-02-28T23:09:16.637Z,10.90
2019-02-28T23:11:47.124Z,10.90
2019-02-28T23:14:17.453Z,10.90
2019-02-28T23:16:50.718Z,10.80
2019-02-28T23:19:20.818Z,10.80
2019-02-28T23:21:50.918Z,10.90
2019-02-28T23:24:20.870Z,10.80
2019-02-28T23:27:13.517Z,10.80
2019-02-28T23:29:49.586Z,10.80
2019-02-28T23:32:34.033Z,10.70
2019-02-28T23:35:07.177Z,10.70
2019-02-28T23:37:37.053Z,10.70
2019-02-28T23:40:07.000Z,10.60
2019-02-28T23:42:37.270Z,10.60
2019-02-28T23:45:07.308Z,10.50
2019-02-28T23:47:37.189Z,10.40
2019-02-28T23:50:07.835Z,10.30
2019-02-28T23:52:37.975Z,10.30
2019-02-28T23:55:07.846Z,10.30
2019-02-28T23:57:37.708Z,10.30
